createdAt,value
2023-05-08T00:01:39.545Z,100255.03
2023-05-08T00:04:27.235Z,100261.78
2023-05-08T00:07:15.633Z,100265.94
2023-05-08T00:10:03.744Z,100256.31
2023-05-08T00:12:51.461Z,100229.72
2023-05-08T00:15:39.259Z,100238.41
2023-05-08T00:18:30.805Z,100263.16
2023-05-08T00:21:18.580Z,100248.31
2023-05-08T00:24:07.590Z,100219.06
2023-05-08T00:26:55.341Z,100261.47
2023-05-08T00:29:43.436Z,100259.38
2023-05-08T00:32:31.212Z,100262.66
2023-05-08T00:35:19.150Z,100249.84
2023-05-08T00:38:06.872Z,100239.00
2023-05-08T00:40:54.516Z,100225.56
2023-05-08T00:43:42.304Z,100262.16
2023-05-08T00:46:30.651Z,100257.41
2023-05-08T00:49:19.225Z,100262.94
2023-05-08T00:52:09.945Z,100247.81
2023-05-08T00:54:58.001Z,100264.41
2023-05-08T00:57:48.016Z,100266.09
2023-05-08T01:00:37.724Z,100264.50
2023-05-08T01:03:26.007Z,100263.25
2023-05-08T01:06:13.753Z,100269.94
2023-05-08T01:09:01.449Z,100242.59
2023-05-08T01:12:09.300Z,100273.44
2023-05-08T01:15:11.861Z,100263.66
2023-05-08T01:18:20.574Z,100276.91
2023-05-08T01:21:34.766Z,100273.97
2023-05-08T01:24:32.483Z,100276.66
2023-05-08T01:27:26.242Z,100270.41
2023-05-08T01:30:41.339Z,100279.50
2023-05-08T01:33:56.850Z,100283.81
2023-05-08T01:37:07.651Z,100274.00
2023-05-08T01:40:08.438Z,100259.53
2023-05-08T01:43:19.386Z,100261.69
2023-05-08T01:46:20.225Z,100256.81
2023-05-08T01:49:26.171Z,100255.38
2023-05-08T01:52:34.969Z,100260.91
2023-05-08T01:55:41.730Z,100249.75
2023-05-08T01:58:46.126Z,100266.06
2023-05-08T02:01:35.130Z,100257.31
2023-05-08T02:04:23.970Z,100240.84
2023-05-08T02:07:28.212Z,100222.66
2023-05-08T02:10:17.658Z,100266.56
2023-05-08T02:13:09.162Z,100215.16
2023-05-08T02:15:58.625Z,100246.28
2023-05-08T02:18:51.512Z,100236.28
2023-05-08T02:21:40.682Z,100276.88
2023-05-08T02:24:30.500Z,100255.53
2023-05-08T02:27:21.519Z,100260.50
2023-05-08T02:30:12.005Z,100278.78
2023-05-08T02:33:01.529Z,100277.06
2023-05-08T02:35:51.063Z,100268.31
2023-05-08T02:38:41.718Z,100261.56
2023-05-08T02:41:32.997Z,100264.69
2023-05-08T02:44:22.048Z,100272.03
2023-05-08T02:47:24.142Z,100267.81
2023-05-08T02:50:27.411Z,100273.84
2023-05-08T02:53:25.048Z,100269.81
2023-05-08T02:56:26.801Z,100273.38
2023-05-08T02:59:24.186Z,100183.44
2023-05-08T03:02:30.570Z,100281.34
2023-05-08T03:05:21.049Z,100281.47
2023-05-08T03:08:17.250Z,100279.88
2023-05-08T03:11:09.584Z,100283.00
2023-05-08T03:14:02.068Z,100276.06
2023-05-08T03:16:54.243Z,100271.03
2023-05-08T03:19:45.453Z,100277.47
2023-05-08T03:22:35.933Z,100271.03
2023-05-08T03:25:25.236Z,100244.41
2023-05-08T03:28:15.038Z,100260.00
2023-05-08T03:31:09.991Z,100261.25
2023-05-08T03:33:59.849Z,100280.78
2023-05-08T03:36:48.668Z,100289.72
2023-05-08T03:39:36.756Z,100287.66
2023-05-08T03:42:26.597Z,100278.47
2023-05-08T03:45:16.497Z,100296.63
2023-05-08T03:48:07.128Z,100270.41
2023-05-08T03:51:02.317Z,100296.06
2023-05-08T03:53:50.025Z,100293.28
2023-05-08T03:56:38.887Z,100308.06
2023-05-08T03:59:51.410Z,100256.41
2023-05-08T04:02:56.864Z,100316.19
2023-05-08T04:06:16.312Z,100323.91
2023-05-08T04:09:22.320Z,100320.47
2023-05-08T04:12:26.349Z,100317.50
2023-05-08T04:15:23.358Z,100296.16
2023-05-08T04:18:16.690Z,100322.06
2023-05-08T04:21:10.504Z,100289.06
2023-05-08T04:23:59.265Z,100311.03
2023-05-08T04:26:49.172Z,100313.63
2023-05-08T04:29:38.441Z,100237.19
2023-05-08T04:32:19.941Z,100305.84
2023-05-08T04:35:08.245Z,100292.78
2023-05-08T04:37:56.470Z,100296.03
2023-05-08T04:40:44.311Z,100310.44
2023-05-08T04:43:32.810Z,100301.88
2023-05-08T04:46:21.035Z,100294.16
2023-05-08T04:49:09.360Z,100298.19
2023-05-08T04:51:59.914Z,100298.19
2023-05-08T04:54:47.575Z,100272.03
2023-05-08T04:57:35.287Z,100278.31
2023-05-08T05:00:23.045Z,100275.13
2023-05-08T05:03:11.570Z,100289.88
2023-05-08T05:06:03.017Z,100286.00
2023-05-08T05:08:50.707Z,100292.59
2023-05-08T05:11:38.490Z,100290.44
2023-05-08T05:14:26.171Z,100295.06
2023-05-08T05:17:14.034Z,100289.47
2023-05-08T05:20:02.591Z,100300.38
2023-05-08T05:22:50.560Z,100280.25
2023-05-08T05:25:38.318Z,100299.69
2023-05-08T05:28:26.376Z,100297.63
2023-05-08T05:31:14.395Z,100268.91
2023-05-08T05:34:04.125Z,100307.19
2023-05-08T05:36:51.932Z,100296.56
2023-05-08T05:39:40.072Z,100290.09
2023-05-08T05:42:27.858Z,100296.63
2023-05-08T05:45:16.364Z,100305.84
2023-05-08T05:48:04.313Z,100312.28
2023-05-08T05:50:52.948Z,100281.72
2023-05-08T05:53:40.858Z,100289.00
2023-05-08T05:56:28.567Z,100275.34
2023-05-08T05:59:16.519Z,100280.97
2023-05-08T06:02:04.441Z,100279.53
2023-05-08T06:04:52.657Z,100278.28
2023-05-08T06:07:40.413Z,100277.84
2023-05-08T06:10:28.780Z,100269.88
2023-05-08T06:13:16.620Z,100277.75
2023-05-08T06:16:04.901Z,100280.75
2023-05-08T06:18:52.818Z,100287.63
2023-05-08T06:21:40.580Z,100290.34
2023-05-08T06:24:28.542Z,100304.56
2023-05-08T06:27:16.272Z,100290.66
2023-05-08T06:30:08.065Z,100292.97
2023-05-08T06:32:57.146Z,100296.91
2023-05-08T06:35:48.626Z,100275.91
2023-05-08T06:38:36.461Z,100298.53
2023-05-08T06:41:24.293Z,100276.53
2023-05-08T06:44:12.131Z,100284.97
2023-05-08T06:47:00.239Z,100273.91
2023-05-08T06:49:48.055Z,100294.13
2023-05-08T06:52:36.015Z,100282.72
2023-05-08T06:55:24.981Z,100279.03
2023-05-08T06:58:15.298Z,100285.31
2023-05-08T07:01:05.935Z,100287.03
2023-05-08T07:03:53.787Z,100298.53
2023-05-08T07:06:53.043Z,100286.16
2023-05-08T07:09:41.525Z,100286.41
2023-05-08T07:12:29.443Z,100289.66
2023-05-08T07:15:25.629Z,100278.09
2023-05-08T07:18:14.666Z,100293.03
2023-05-08T07:21:05.443Z,100289.13
2023-05-08T07:23:54.261Z,100301.94
2023-05-08T07:26:43.264Z,100302.78
2023-05-08T07:29:34.025Z,100314.47
2023-05-08T07:32:21.927Z,100319.81
2023-05-08T07:35:11.681Z,100321.97
2023-05-08T07:37:59.559Z,100320.66
2023-05-08T07:40:49.500Z,100305.38
2023-05-08T07:43:37.555Z,100316.56
2023-05-08T07:46:27.716Z,100337.63
2023-05-08T07:49:16.820Z,100342.03
2023-05-08T07:52:07.736Z,100338.84
2023-05-08T07:54:57.363Z,100337.81
2023-05-08T07:57:45.479Z,100351.81
2023-05-08T08:00:34.661Z,100354.59
2023-05-08T08:03:22.710Z,100335.72
2023-05-08T08:06:10.580Z,100346.56
2023-05-08T08:08:58.355Z,100351.03
2023-05-08T08:11:46.339Z,100347.03
2023-05-08T08:14:35.371Z,100357.34
2023-05-08T08:17:24.067Z,100351.47
2023-05-08T08:20:13.236Z,100354.72
2023-05-08T08:23:01.257Z,100360.13
2023-05-08T08:25:49.260Z,100331.56
2023-05-08T08:28:37.061Z,100371.38
2023-05-08T08:31:24.837Z,100362.69
2023-05-08T08:34:12.672Z,100360.66
2023-05-08T08:37:00.514Z,100367.81
2023-05-08T08:39:51.277Z,100359.31
2023-05-08T08:42:39.109Z,100342.91
2023-05-08T08:45:26.900Z,100374.00
2023-05-08T08:48:15.146Z,100366.00
2023-05-08T08:51:07.067Z,100361.41
2023-05-08T08:53:59.148Z,100377.31
2023-05-08T08:57:08.255Z,100371.19
2023-05-08T08:59:56.609Z,100360.94
2023-05-08T09:02:44.515Z,100380.31
2023-05-08T09:05:33.859Z,100386.59
2023-05-08T09:08:21.809Z,100402.78
2023-05-08T09:11:09.674Z,100399.72
2023-05-08T09:13:58.378Z,100419.28
2023-05-08T09:16:46.258Z,100415.03
2023-05-08T09:19:34.983Z,100406.88
2023-05-08T09:22:26.753Z,100420.38
2023-05-08T09:25:14.635Z,100421.88
2023-05-08T09:28:20.032Z,100427.38
2023-05-08T09:31:07.876Z,100430.81
2023-05-08T09:33:55.856Z,100425.84
2023-05-08T09:36:43.732Z,100418.91
2023-05-08T09:39:31.460Z,100426.72
2023-05-08T09:42:19.305Z,100426.66
2023-05-08T09:45:07.778Z,100393.00
2023-05-08T09:51:20.061Z,100406.94
2023-05-08T09:54:18.269Z,100424.25
2023-05-08T09:57:13.183Z,100426.34
2023-05-08T10:00:13.271Z,100423.25
2023-05-08T10:03:14.234Z,100422.88
2023-05-08T10:06:16.039Z,100430.50
2023-05-08T10:09:08.502Z,100429.97
2023-05-08T10:11:56.486Z,100427.88
2023-05-08T10:14:46.824Z,100415.00
2023-05-08T10:17:59.658Z,100408.19
2023-05-08T10:21:06.836Z,100384.09
2023-05-08T10:23:58.471Z,100428.59
2023-05-08T10:27:20.834Z,100433.41
2023-05-08T10:30:13.548Z,100453.81
2023-05-08T10:33:31.833Z,100447.41
2023-05-08T10:36:32.687Z,100450.78
2023-05-08T10:39:21.374Z,100432.56
2023-05-08T10:42:09.550Z,100435.09
2023-05-08T10:48:59.369Z,100405.78
2023-05-08T10:52:24.385Z,100451.25
2023-05-08T10:55:46.359Z,100450.38
2023-05-08T10:58:36.187Z,100441.31
2023-05-08T11:01:24.421Z,100441.59
2023-05-08T11:04:23.448Z,100440.44
2023-05-08T11:07:11.736Z,100450.63
2023-05-08T11:10:13.384Z,100445.38
2023-05-08T11:13:02.025Z,100452.06
2023-05-08T11:15:52.536Z,100427.59
2023-05-08T11:19:29.477Z,100447.09
2023-05-08T11:22:19.956Z,100430.94
2023-05-08T11:25:10.371Z,100446.03
2023-05-08T11:28:18.399Z,100447.59
2023-05-08T11:31:09.431Z,100447.16
2023-05-08T11:33:57.215Z,100446.63
2023-05-08T11:37:02.486Z,100429.06
2023-05-08T11:39:51.017Z,100440.38
2023-05-08T11:42:38.915Z,100437.38
2023-05-08T11:45:30.049Z,100452.97
2023-05-08T11:48:20.485Z,100421.31
2023-05-08T11:51:09.743Z,100466.03
2023-05-08T11:53:57.744Z,100436.34
2023-05-08T11:56:53.736Z,100466.69
2023-05-08T11:59:43.740Z,100446.06
2023-05-08T12:02:42.329Z,100453.69
2023-05-08T12:05:32.870Z,100467.13
2023-05-08T12:08:20.507Z,100467.44
2023-05-08T12:11:08.210Z,100476.91
2023-05-08T12:13:56.220Z,100468.78
2023-05-08T12:16:44.018Z,100450.84
2023-05-08T12:19:31.731Z,100454.28
2023-05-08T12:22:19.573Z,100447.56
2023-05-08T12:25:09.379Z,100471.13
2023-05-08T12:27:57.687Z,100462.22
2023-05-08T12:30:45.386Z,100440.28
2023-05-08T12:33:34.597Z,100451.66
2023-05-08T12:36:22.306Z,100431.13
2023-05-08T12:39:18.648Z,100467.97
2023-05-08T12:42:08.623Z,100457.63
2023-05-08T12:44:57.932Z,100429.22
2023-05-08T12:47:47.545Z,100458.59
2023-05-08T12:50:43.208Z,100457.75
2023-05-08T12:53:33.127Z,100454.84
2023-05-08T12:56:22.725Z,100463.19
2023-05-08T12:59:10.527Z,100452.06
2023-05-08T13:01:58.278Z,100463.28
2023-05-08T13:04:46.309Z,100463.03
2023-05-08T13:07:34.916Z,100461.78
2023-05-08T13:10:24.422Z,100458.25
2023-05-08T13:13:20.925Z,100489.44
2023-05-08T13:16:08.888Z,100475.03
2023-05-08T13:18:56.878Z,100510.13
2023-05-08T13:21:47.879Z,100509.72
2023-05-08T13:24:38.208Z,100451.41
2023-05-08T13:27:26.026Z,100512.88
2023-05-08T13:30:15.754Z,100519.97
2023-05-08T13:33:04.425Z,100522.72
2023-05-08T13:35:52.451Z,100498.00
2023-05-08T13:38:40.128Z,100486.03
2023-05-08T13:41:27.759Z,100505.59
2023-05-08T13:44:15.506Z,100492.22
2023-05-08T13:47:03.344Z,100485.69
2023-05-08T13:49:51.117Z,100515.16
2023-05-08T13:52:39.972Z,100500.94
2023-05-08T13:55:27.748Z,100496.56
2023-05-08T13:58:15.664Z,100504.75
2023-05-08T14:01:13.866Z,100515.44
2023-05-08T14:04:13.120Z,100516.22
2023-05-08T14:07:05.641Z,100514.88
2023-05-08T14:09:53.561Z,100513.03
2023-05-08T14:12:41.311Z,100519.13
2023-05-08T14:15:36.900Z,100511.59
2023-05-08T14:18:28.357Z,100514.34
2023-05-08T14:21:16.177Z,100517.91
2023-05-08T14:24:09.245Z,100535.44
2023-05-08T14:26:57.153Z,100534.69
2023-05-08T14:29:44.752Z,100546.03
2023-05-08T14:32:37.324Z,100545.66
2023-05-08T14:35:25.041Z,100540.09
2023-05-08T14:38:15.588Z,100532.16
2023-05-08T14:41:04.874Z,100536.91
2023-05-08T14:43:52.844Z,100493.94
2023-05-08T14:46:40.686Z,100542.16
2023-05-08T14:49:37.394Z,100526.25
2023-05-08T14:52:26.981Z,100523.00
2023-05-08T14:55:21.016Z,100536.22
2023-05-08T14:58:09.057Z,100528.56
2023-05-08T15:00:56.749Z,100530.91
2023-05-08T15:03:47.522Z,100517.69
2023-05-08T15:06:40.424Z,100534.13
2023-05-08T15:09:28.113Z,100525.78
2023-05-08T15:12:15.736Z,100536.47
2023-05-08T15:15:06.547Z,100545.06
2023-05-08T15:17:54.258Z,100550.69
2023-05-08T15:20:42.151Z,100514.88
2023-05-08T15:23:29.995Z,100537.25
2023-05-08T15:26:18.119Z,100539.56
2023-05-08T15:29:08.199Z,100553.91
2023-05-08T15:31:56.212Z,100549.84
2023-05-08T15:34:44.993Z,100548.28
2023-05-08T15:37:32.769Z,100545.91
2023-05-08T15:40:20.684Z,100541.44
2023-05-08T15:43:08.639Z,100550.50
2023-05-08T15:45:58.039Z,100553.97
2023-05-08T15:48:45.821Z,100552.88
2023-05-08T15:51:33.524Z,100552.56
2023-05-08T15:54:21.423Z,100562.22
2023-05-08T15:57:09.161Z,100525.78
2023-05-08T15:59:56.821Z,100527.75
2023-05-08T16:02:44.977Z,100571.63
2023-05-08T16:05:32.788Z,100568.78
2023-05-08T16:08:20.515Z,100572.78
2023-05-08T16:11:08.484Z,100574.16
2023-05-08T16:13:56.310Z,100548.28
2023-05-08T16:16:46.562Z,100559.88
2023-05-08T16:19:40.684Z,100574.72
2023-05-08T16:22:28.518Z,100583.13
2023-05-08T16:25:16.376Z,100585.44
2023-05-08T16:28:04.166Z,100595.13
2023-05-08T16:30:54.791Z,100600.59
2023-05-08T16:33:42.578Z,100591.81
2023-05-08T16:36:31.838Z,100576.28
2023-05-08T16:39:19.572Z,100585.81
2023-05-08T16:42:07.778Z,100582.81
2023-05-08T16:44:56.735Z,100610.03
2023-05-08T16:47:44.404Z,100596.09
2023-05-08T16:50:32.359Z,100612.59
2023-05-08T16:53:20.055Z,100613.19
2023-05-08T16:56:08.369Z,100619.13
2023-05-08T16:59:09.492Z,100617.59
2023-05-08T17:02:03.024Z,100617.41
2023-05-08T17:04:51.082Z,100629.25
2023-05-08T17:07:40.047Z,100630.56
2023-05-08T17:10:30.204Z,100633.25
2023-05-08T17:13:18.097Z,100622.72
2023-05-08T17:16:06.970Z,100620.91
2023-05-08T17:18:54.607Z,100651.34
2023-05-08T17:21:42.239Z,100658.81
2023-05-08T17:24:30.783Z,100649.41
2023-05-08T17:27:19.581Z,100669.72
2023-05-08T17:30:08.952Z,100670.69
2023-05-08T17:32:56.715Z,100680.13
2023-05-08T17:35:45.546Z,100672.88
2023-05-08T17:38:35.424Z,100667.56
2023-05-08T17:41:23.312Z,100685.31
2023-05-08T17:44:11.109Z,100679.22
2023-05-08T17:46:58.830Z,100687.44
2023-05-08T17:49:46.656Z,100709.63
2023-05-08T17:52:35.207Z,100695.44
2023-05-08T17:55:25.856Z,100676.28
2023-05-08T17:58:13.535Z,100694.59
2023-05-08T18:01:03.654Z,100706.81
2023-05-08T18:03:53.428Z,100688.34
2023-05-08T18:06:47.604Z,100708.97
2023-05-08T18:09:37.667Z,100702.75
2023-05-08T18:12:25.405Z,100715.06
2023-05-08T18:15:13.460Z,100729.09
2023-05-08T18:18:01.310Z,100733.03
2023-05-08T18:20:51.759Z,100741.53
2023-05-08T18:23:39.686Z,100744.75
2023-05-08T18:26:27.516Z,100727.78
2023-05-08T18:29:15.518Z,100749.78
2023-05-08T18:32:03.364Z,100756.75
2023-05-08T18:34:51.094Z,100754.53
2023-05-08T18:37:38.871Z,100771.25
2023-05-08T18:40:26.542Z,100739.84
2023-05-08T18:43:14.341Z,100770.63
2023-05-08T18:46:14.704Z,100761.41
2023-05-08T18:49:02.381Z,100745.31
2023-05-08T18:51:50.047Z,100774.28
2023-05-08T18:54:37.715Z,100765.09
2023-05-08T18:57:25.605Z,100766.75
2023-05-08T19:00:13.986Z,100775.34
2023-05-08T19:03:01.945Z,100763.19
2023-05-08T19:05:51.483Z,100777.50
2023-05-08T19:08:39.250Z,100759.97
2023-05-08T19:11:27.139Z,100771.34
2023-05-08T19:14:15.026Z,100772.66
2023-05-08T19:17:02.758Z,100774.13
2023-05-08T19:19:53.805Z,100774.56
2023-05-08T19:22:41.458Z,100776.00
2023-05-08T19:25:29.133Z,100759.50
2023-05-08T19:28:16.823Z,100763.00
2023-05-08T19:31:04.618Z,100746.41
2023-05-08T19:33:52.328Z,100741.72
2023-05-08T19:36:40.064Z,100748.63
2023-05-08T19:39:27.790Z,100751.81
2023-05-08T19:42:15.629Z,100748.81
2023-05-08T19:45:03.482Z,100742.91
2023-05-08T19:47:51.434Z,100741.94
2023-05-08T19:50:39.132Z,100724.03
2023-05-08T19:53:26.856Z,100756.31
2023-05-08T19:56:14.548Z,100767.31
2023-05-08T19:59:02.325Z,100767.75
2023-05-08T20:01:54.116Z,100777.41
2023-05-08T20:05:07.917Z,100740.91
2023-05-08T20:07:54.226Z,100772.31
2023-05-08T20:10:42.118Z,100776.88
2023-05-08T20:13:30.162Z,100778.50
2023-05-08T20:16:17.877Z,100778.56
2023-05-08T20:19:05.612Z,100776.78
2023-05-08T20:21:53.274Z,100766.66
2023-05-08T20:24:40.996Z,100783.81
2023-05-08T20:27:28.787Z,100780.78
2023-05-08T20:30:31.411Z,100780.94
2023-05-08T20:33:19.574Z,100800.53
2023-05-08T20:36:07.344Z,100795.81
2023-05-08T20:38:55.069Z,100786.72
2023-05-08T20:41:42.970Z,100780.44
2023-05-08T20:44:30.657Z,100795.75
2023-05-08T20:47:18.445Z,100789.56
2023-05-08T20:50:06.964Z,100789.56
2023-05-08T20:52:54.862Z,100796.63
2023-05-08T20:55:51.479Z,100776.69
2023-05-08T20:58:44.803Z,100796.47
2023-05-08T21:01:33.617Z,100800.38
2023-05-08T21:04:21.443Z,100797.06
2023-05-08T21:07:11.821Z,100797.41
2023-05-08T21:10:00.172Z,100787.44
2023-05-08T21:12:47.844Z,100795.09
2023-05-08T21:15:35.649Z,100793.50
2023-05-08T21:18:23.436Z,100796.63
2023-05-08T21:21:22.879Z,100789.78
2023-05-08T21:24:10.575Z,100783.72
2023-05-08T21:26:59.989Z,100778.44
2023-05-08T21:29:47.611Z,100796.63
2023-05-08T21:32:35.697Z,100784.06
2023-05-08T21:35:23.553Z,100756.06
2023-05-08T21:38:14.352Z,100768.09
2023-05-08T21:41:07.650Z,100784.88
2023-05-08T21:43:55.857Z,100789.41
2023-05-08T21:46:43.564Z,100799.06
2023-05-08T21:49:31.462Z,100769.16
2023-05-08T21:52:22.449Z,100805.06
2023-05-08T21:55:10.374Z,100793.66
2023-05-08T21:57:58.049Z,100780.09
2023-05-08T22:00:46.358Z,100792.63
2023-05-08T22:03:34.162Z,100789.66
2023-05-08T22:06:21.895Z,100794.13
2023-05-08T22:09:09.656Z,100788.50
2023-05-08T22:11:59.830Z,100797.97
2023-05-08T22:14:47.536Z,100784.84
2023-05-08T22:17:35.679Z,100800.28
2023-05-08T22:20:23.614Z,100779.56
2023-05-08T22:23:11.292Z,100796.22
2023-05-08T22:25:58.935Z,100810.28
2023-05-08T22:28:46.657Z,100803.19
2023-05-08T22:31:34.379Z,100793.41
2023-05-08T22:34:22.475Z,100800.75
2023-05-08T22:37:10.148Z,100799.97
2023-05-08T22:39:57.979Z,100800.31
2023-05-08T22:42:46.425Z,100810.56
2023-05-08T22:45:34.223Z,100789.03
2023-05-08T22:48:22.069Z,100784.88
2023-05-08T22:51:10.346Z,100796.28
2023-05-08T22:53:58.416Z,100801.91
2023-05-08T22:56:49.140Z,100795.59
2023-05-08T22:59:37.019Z,100810.00
2023-05-08T23:02:24.737Z,100802.53
2023-05-08T23:05:12.683Z,100778.09
2023-05-08T23:08:04.127Z,100779.13
2023-05-08T23:10:51.855Z,100803.44
2023-05-08T23:13:39.486Z,100806.53
2023-05-08T23:16:27.374Z,100816.94
2023-05-08T23:19:15.058Z,100808.53
2023-05-08T23:22:02.800Z,100814.28
2023-05-08T23:24:50.442Z,100807.69
2023-05-08T23:27:38.563Z,100792.25
2023-05-08T23:30:26.930Z,100810.00
2023-05-08T23:33:18.254Z,100805.97
2023-05-08T23:36:06.444Z,100794.41
2023-05-08T23:38:54.088Z,100803.22
2023-05-08T23:41:41.811Z,100799.38
2023-05-08T23:44:29.465Z,100770.44
2023-05-08T23:47:19.489Z,100791.44
2023-05-08T23:50:07.665Z,100763.56
2023-05-08T23:52:55.397Z,100795.03
2023-05-08T23:55:45.758Z,100795.47
2023-05-08T23:58:33.445Z,100791.09
